createdAt,value
2022-09-10T05:04:58.081Z,14.33
2022-09-10T05:07:12.389Z,14.37
2022-09-10T05:09:27.775Z,14.48
2022-09-10T05:11:42.167Z,14.65
2022-09-10T05:13:56.524Z,14.85
2022-09-10T05:16:11.072Z,15.04
2022-09-10T05:18:25.374Z,15.24
2022-09-10T05:20:39.788Z,15.42
2022-09-10T05:22:54.262Z,15.58
2022-09-10T05:25:08.677Z,15.73
2022-09-10T05:27:23.043Z,15.86
2022-09-10T05:29:37.389Z,15.97
2022-09-10T05:31:51.852Z,16.049999
2022-09-10T05:34:06.154Z,16.110001
2022-09-10T05:36:20.542Z,16.18
2022-09-10T05:38:39.370Z,16.219999
2022-09-10T05:40:50.003Z,16.27
2022-09-10T05:43:04.460Z,16.33
2022-09-10T05:45:18.899Z,16.379999
2022-09-10T05:47:33.324Z,16.42
2022-09-10T05:49:47.734Z,16.469999
2022-09-10T05:52:02.130Z,16.530001
2022-09-10T05:54:16.511Z,16.57
2022-09-10T05:56:30.883Z,16.6
2022-09-10T05:58:45.325Z,16.610001
2022-09-10T06:00:59.668Z,16.610001
2022-09-10T06:03:14.108Z,16.610001
2022-09-10T06:05:30.185Z,16.610001
2022-09-10T06:07:44.882Z,16.629999
2022-09-10T06:09:59.341Z,16.67
2022-09-10T06:12:13.713Z,16.700001
2022-09-10T06:14:28.272Z,16.73
2022-09-10T06:16:42.709Z,16.77
2022-09-10T06:18:57.002Z,16.809999
2022-09-10T06:21:11.726Z,16.83
2022-09-10T06:23:26.127Z,16.85
2022-09-10T06:25:40.515Z,16.870001
2022-09-10T06:27:54.888Z,16.870001
2022-09-10T06:30:10.193Z,16.870001
2022-09-10T06:32:24.674Z,16.870001
2022-09-10T06:34:39.112Z,16.889999
2022-09-10T06:36:53.520Z,16.91
2022-09-10T06:39:07.849Z,16.93
2022-09-10T06:41:22.186Z,16.969999
2022-09-10T06:43:36.532Z,17.02
2022-09-10T06:45:50.937Z,17.08
2022-09-10T06:50:22.559Z,17.23
2022-09-10T06:52:36.894Z,17.27
2022-09-10T06:54:51.254Z,17.280001
2022-09-10T06:57:05.586Z,17.27
2022-09-10T06:59:19.928Z,17.27
2022-09-10T07:01:34.465Z,17.27
2022-09-10T07:03:49.672Z,17.280001
2022-09-10T07:06:04.123Z,17.280001
2022-09-10T07:08:18.437Z,17.280001
2022-09-10T07:10:32.791Z,17.280001
2022-09-10T07:12:47.112Z,17.27
2022-09-10T07:15:01.453Z,17.26
2022-09-10T07:17:15.803Z,17.26
2022-09-10T07:19:30.129Z,17.25
2022-09-10T07:21:44.473Z,17.24
2022-09-10T07:23:58.803Z,17.24
2022-09-10T07:26:13.159Z,17.24
2022-09-10T07:28:27.608Z,17.24
2022-09-10T07:30:42.012Z,17.25
2022-09-10T07:32:57.353Z,17.24
2022-09-10T07:35:11.671Z,17.219999
2022-09-10T07:37:26.074Z,17.190001
2022-09-10T07:39:40.440Z,17.17
2022-09-10T07:41:54.843Z,17.16
2022-09-10T07:44:09.168Z,17.17
2022-09-10T07:46:24.181Z,17.17
2022-09-10T07:48:39.623Z,17.17
2022-09-10T07:50:53.851Z,17.17
2022-09-10T07:53:08.220Z,17.16
2022-09-10T07:55:22.562Z,17.16
2022-09-10T07:57:36.922Z,17.17
2022-09-10T07:59:51.400Z,17.16
2022-09-10T08:02:05.763Z,17.15
2022-09-10T08:04:20.142Z,17.15
2022-09-10T08:06:34.489Z,17.18
2022-09-10T08:08:49.809Z,17.190001
2022-09-10T08:11:06.481Z,17.209999
2022-09-10T08:13:20.527Z,17.26
2022-09-10T08:15:34.856Z,17.34
2022-09-10T08:17:49.192Z,17.41
2022-09-10T08:20:03.563Z,17.450001
2022-09-10T08:22:17.937Z,17.48
2022-09-10T08:24:32.298Z,17.49
2022-09-10T08:26:46.641Z,17.51
2022-09-10T08:29:01.088Z,17.51
2022-09-10T08:31:15.516Z,17.52
2022-09-10T08:33:29.816Z,17.540001
2022-09-10T08:35:44.251Z,17.549999
2022-09-10T08:37:58.632Z,17.540001
2022-09-10T08:40:12.978Z,17.540001
2022-09-10T08:42:27.286Z,17.540001
2022-09-10T08:44:41.680Z,17.549999
2022-09-10T08:46:56.001Z,17.559999
2022-09-10T08:49:10.328Z,17.559999
2022-09-10T08:51:24.671Z,17.57
2022-09-10T08:53:39.008Z,17.549999
2022-09-10T08:55:53.439Z,17.52
2022-09-10T08:58:07.767Z,17.51
2022-09-10T09:00:23.185Z,17.49
2022-09-10T09:02:48.690Z,17.469999
2022-09-10T09:04:54.852Z,17.450001
2022-09-10T09:07:09.201Z,17.450001
2022-09-10T09:09:23.543Z,17.440001
2022-09-10T09:11:37.892Z,17.43
2022-09-10T09:13:52.198Z,17.41
2022-09-10T09:16:06.603Z,17.41
2022-09-10T09:18:20.880Z,17.42
2022-09-10T09:20:35.215Z,17.42
2022-09-10T09:22:49.569Z,17.42
2022-09-10T09:25:03.896Z,17.42
2022-09-10T09:27:18.261Z,17.42
2022-09-10T09:29:32.590Z,17.42
2022-09-10T09:31:47.004Z,17.42
2022-09-10T09:34:01.364Z,17.41
2022-09-10T09:36:15.767Z,17.389999
2022-09-10T09:38:30.103Z,17.389999
2022-09-10T09:40:44.505Z,17.41
2022-09-10T09:42:58.815Z,17.43
2022-09-10T09:45:13.209Z,17.450001
2022-09-10T09:47:27.602Z,17.459999
2022-09-10T09:49:42.892Z,17.469999
2022-09-10T09:51:58.220Z,17.469999
2022-09-10T09:54:42.714Z,17.469999
2022-09-10T09:56:29.925Z,17.48
2022-09-10T09:58:44.855Z,17.49
2022-09-10T10:00:59.308Z,17.49
2022-09-10T10:03:13.683Z,17.51
2022-09-10T10:05:28.067Z,17.52
2022-09-10T10:07:42.461Z,17.530001
2022-09-10T10:09:56.756Z,17.549999
2022-09-10T10:12:11.178Z,17.57
2022-09-10T10:14:25.613Z,17.59
2022-09-10T10:16:39.980Z,17.629999
2022-09-10T10:18:54.383Z,17.66
2022-09-10T10:21:08.729Z,17.690001
2022-09-10T10:23:23.103Z,17.709999
2022-09-10T10:25:39.422Z,17.719999
2022-09-10T10:27:53.742Z,17.73
2022-09-10T10:30:08.201Z,17.74
2022-09-10T10:32:22.455Z,17.76
2022-09-10T10:34:36.862Z,17.780001
2022-09-10T10:36:52.247Z,17.780001
2022-09-10T10:39:06.564Z,17.780001
2022-09-10T10:41:20.919Z,17.780001
2022-09-10T10:43:35.241Z,17.799999
2022-09-10T10:45:49.813Z,17.83
2022-09-10T10:48:04.205Z,17.85
2022-09-10T10:50:18.594Z,17.860001
2022-09-10T10:52:32.929Z,17.870001
2022-09-10T10:54:47.249Z,17.879999
2022-09-10T10:57:02.661Z,17.91
2022-09-10T10:59:17.016Z,17.92
2022-09-10T11:01:31.404Z,17.959999
2022-09-10T11:03:45.804Z,17.99
2022-09-10T11:06:00.226Z,18.030001
2022-09-10T11:08:14.652Z,18.059999
2022-09-10T11:10:29.001Z,18.07
2022-09-10T11:12:43.358Z,18.120001
2022-09-10T11:14:57.751Z,18.18
2022-09-10T11:17:12.211Z,18.26
2022-09-10T11:19:26.615Z,18.34
2022-09-10T11:21:41.015Z,18.389999
2022-09-10T11:23:55.464Z,18.440001
2022-09-10T11:26:10.781Z,18.5
2022-09-10T11:28:25.199Z,18.559999
2022-09-10T11:30:39.523Z,18.639999
2022-09-10T11:32:54.859Z,18.73
2022-09-10T11:35:10.243Z,18.809999
2022-09-10T11:37:24.866Z,18.860001
2022-09-10T11:39:39.177Z,18.889999
2022-09-10T11:41:53.534Z,18.91
2022-09-10T11:44:07.895Z,18.950001
2022-09-10T11:46:22.430Z,19.01
2022-09-10T11:48:36.892Z,19.08
2022-09-10T11:50:51.251Z,19.16
2022-09-10T11:53:05.639Z,19.26
2022-09-10T11:55:20.055Z,19.34
2022-09-10T11:57:35.427Z,19.4
2022-09-10T11:59:49.874Z,19.450001
2022-09-10T12:02:04.304Z,19.49
2022-09-10T12:04:18.744Z,19.540001
2022-09-10T12:06:33.074Z,19.59
2022-09-10T12:08:48.078Z,19.6
2022-09-10T12:11:02.373Z,19.6
2022-09-10T12:13:16.790Z,19.610001
2022-09-10T12:15:32.172Z,19.6
2022-09-10T12:17:46.537Z,19.6
2022-09-10T12:20:00.950Z,19.58
2022-09-10T12:22:15.313Z,19.549999
2022-09-10T12:24:29.713Z,19.49
2022-09-10T12:26:44.101Z,19.389999
2022-09-10T12:28:58.482Z,19.290001
2022-09-10T12:31:12.922Z,19.190001
2022-09-10T12:33:27.400Z,19.120001
2022-09-10T12:35:41.743Z,19.049999
2022-09-10T12:37:56.114Z,19.02
2022-09-10T12:40:13.213Z,19.01
2022-09-10T12:42:25.893Z,19.01
2022-09-10T12:44:40.332Z,19.01
2022-09-10T12:46:54.690Z,18.99
2022-09-10T12:49:09.073Z,18.98
2022-09-10T12:51:23.450Z,18.969999
2022-09-10T12:53:37.854Z,18.99
2022-09-10T12:55:52.249Z,18.99
2022-09-10T12:58:06.658Z,19.01
2022-09-10T13:00:21.042Z,19.040001
2022-09-10T13:02:35.464Z,19.059999
2022-09-10T13:04:50.846Z,19.08
2022-09-10T13:07:05.290Z,19.1
2022-09-10T13:09:19.669Z,19.110001
2022-09-10T13:11:34.030Z,19.120001
2022-09-10T13:13:48.377Z,19.15
2022-09-10T13:16:03.029Z,19.17
2022-09-10T13:18:17.295Z,19.18
2022-09-10T13:20:31.664Z,19.209999
2022-09-10T13:22:46.457Z,19.25
